createdAt,value
2022-09-06T11:29:51.143Z,31.06
2022-09-06T11:30:51.158Z,31.48
2022-09-06T11:32:51.113Z,32.15
2022-09-06T11:33:51.088Z,32.52
2022-09-06T11:34:51.077Z,32.48
2022-09-06T11:35:51.064Z,32.66
2022-09-06T11:36:51.058Z,33.18
2022-09-06T11:37:51.055Z,33.75
2022-09-06T11:38:51.033Z,33.73
2022-09-06T11:40:51.011Z,34.42
2022-09-06T11:41:51.026Z,34.37
2022-09-06T11:42:51.026Z,34.12
2022-09-06T11:43:50.968Z,33.50
2022-09-06T11:44:50.964Z,34.10
2022-09-06T11:45:50.957Z,34.49
2022-09-06T11:46:51.015Z,34.30
2022-09-06T11:47:50.951Z,33.54
2022-09-06T11:48:50.941Z,34.19
2022-09-06T11:49:50.927Z,34.70
2022-09-06T11:50:50.919Z,34.53
2022-09-06T11:51:50.886Z,34.66
2022-09-06T11:52:50.900Z,35.43
2022-09-06T11:53:50.875Z,35.74
2022-09-06T11:54:50.884Z,35.55
2022-09-06T11:55:50.860Z,35.66
2022-09-06T11:56:50.847Z,35.92
2022-09-06T11:57:50.848Z,36.46
2022-09-06T11:58:50.822Z,36.71
2022-09-06T11:59:50.810Z,36.68
2022-09-06T12:00:50.811Z,36.72
2022-09-06T12:01:50.800Z,36.56
2022-09-06T12:02:51.147Z,35.90
2022-09-06T12:04:07.455Z,35.93
2022-09-06T12:04:50.778Z,35.68
2022-09-06T12:05:50.765Z,34.92
2022-09-06T12:06:50.750Z,34.73
2022-09-06T12:51:55.356Z,29.53
2022-09-06T12:52:55.308Z,30.26
2022-09-06T12:53:55.299Z,30.73
2022-09-06T12:54:55.273Z,31.47
2022-09-06T12:55:55.250Z,32.30
2022-09-06T12:56:55.258Z,32.88
2022-09-06T12:57:55.238Z,33.68
2022-09-06T12:58:55.227Z,34.30
2022-09-06T12:59:55.205Z,34.80
2022-09-06T13:00:55.190Z,35.07
2022-09-06T13:01:55.229Z,35.68
2022-09-06T13:02:55.264Z,35.59
2022-09-06T13:03:55.180Z,35.31
2022-09-06T13:04:55.149Z,35.26
2022-09-06T13:05:55.156Z,35.23
2022-09-06T13:06:55.133Z,35.90
2022-09-06T13:07:55.116Z,36.08
2022-09-06T13:08:55.127Z,36.43
2022-09-06T13:09:55.096Z,36.47
2022-09-06T13:10:55.096Z,36.87
2022-09-06T13:11:55.080Z,37.29
2022-09-06T13:12:55.069Z,36.64
2022-09-06T13:13:55.080Z,36.31
2022-09-06T13:14:55.056Z,36.31
2022-09-06T13:15:55.094Z,36.62
2022-09-06T13:16:55.045Z,36.69
2022-09-06T13:17:55.036Z,36.54
2022-09-06T13:18:55.028Z,36.72
2022-09-06T13:19:55.017Z,36.78
2022-09-06T13:20:55.010Z,36.91
2022-09-06T13:21:54.994Z,37.03
2022-09-06T13:22:54.995Z,37.00
2022-09-06T13:23:54.987Z,37.43
2022-09-06T13:24:54.986Z,37.25
2022-09-06T13:25:54.960Z,37.39
2022-09-06T13:26:54.955Z,37.37
2022-09-06T13:27:54.956Z,37.72
2022-09-06T13:28:54.971Z,37.49
2022-09-06T13:29:54.933Z,37.46
2022-09-06T13:30:54.973Z,37.89
2022-09-06T13:31:54.926Z,38.04
2022-09-06T13:32:54.911Z,38.03
2022-09-06T13:33:54.915Z,37.63
2022-09-06T13:34:54.907Z,37.49
2022-09-06T13:35:54.890Z,37.28
2022-09-06T13:36:54.893Z,37.02
2022-09-06T13:37:54.886Z,36.69
2022-09-06T13:38:54.897Z,36.88
2022-09-06T13:39:54.908Z,36.91
2022-09-06T13:41:11.672Z,37.22
2022-09-06T13:41:54.850Z,37.44
2022-09-06T13:42:54.861Z,37.66
2022-09-06T13:43:54.850Z,37.75
2022-09-06T13:44:57.732Z,37.94
2022-09-06T13:45:54.860Z,37.72
2022-09-06T13:46:54.829Z,37.88
2022-09-06T13:48:07.936Z,38.04
2022-09-06T13:49:47.269Z,36.62
2022-09-06T13:57:56.445Z,32.48
2022-09-06T14:00:27.001Z,32.84
2022-09-06T14:10:20.840Z,31.21
2022-09-06T14:18:18.263Z,31.06
2022-09-06T14:19:18.245Z,31.91
2022-09-06T14:20:18.236Z,32.81
2022-09-06T14:21:18.215Z,33.54
2022-09-06T14:22:18.219Z,34.35
2022-09-06T14:23:18.211Z,35.04
2022-09-06T14:24:18.210Z,34.50
2022-09-06T14:25:18.192Z,34.13
2022-09-06T14:26:18.175Z,34.84
2022-09-06T14:27:18.175Z,35.41
2022-09-06T14:28:18.174Z,35.99
2022-09-06T14:29:18.163Z,35.21
2022-09-06T14:30:18.155Z,35.65
2022-09-06T14:31:18.169Z,35.77
2022-09-06T14:32:21.876Z,36.25
2022-09-06T14:33:18.144Z,36.62
2022-09-06T14:34:18.125Z,36.57
2022-09-06T14:35:18.109Z,36.23
2022-09-06T14:36:18.101Z,35.65
2022-09-06T14:37:18.096Z,35.47
2022-09-06T14:38:18.112Z,35.21
2022-09-06T14:39:18.094Z,35.55
2022-09-06T14:40:18.089Z,35.70
2022-09-06T14:41:18.082Z,35.63
2022-09-06T14:45:45.838Z,33.32
2022-09-06T14:48:19.839Z,33.61
2022-09-06T14:49:19.722Z,34.13
2022-09-06T14:50:19.722Z,34.46
2022-09-06T14:51:19.705Z,35.00
2022-09-06T14:52:19.700Z,35.26
2022-09-06T14:53:39.237Z,35.43
2022-09-06T14:54:55.001Z,35.75
2022-09-06T14:55:55.017Z,35.43
2022-09-06T14:56:55.007Z,35.71
2022-09-06T14:57:54.980Z,35.71
2022-09-06T14:58:55.002Z,36.25
2022-09-06T14:59:54.981Z,36.72
2022-09-06T15:00:54.971Z,36.95
2022-09-06T15:01:55.164Z,36.72
2022-09-06T15:02:55.048Z,36.95
2022-09-06T15:03:54.967Z,37.25
2022-09-06T15:04:54.959Z,37.49
2022-09-06T15:05:54.949Z,37.50
2022-09-06T15:06:54.940Z,37.40
2022-09-06T15:11:11.163Z,34.24
2022-09-06T15:12:28.396Z,33.69
2022-09-06T15:13:28.528Z,33.51
2022-09-06T15:14:28.385Z,33.12
2022-09-06T15:15:28.399Z,32.93
2022-09-06T15:16:28.370Z,32.93
2022-09-06T15:17:28.356Z,32.97
2022-09-06T16:06:33.043Z,31.28
2022-09-06T16:07:03.086Z,31.44
2022-09-06T16:08:03.076Z,31.41
2022-09-06T16:09:03.086Z,31.39
2022-09-06T16:10:03.055Z,31.35
2022-09-06T16:11:10.711Z,31.29
2022-09-06T16:12:10.697Z,31.39
2022-09-06T16:13:10.688Z,31.46
2022-09-06T16:14:10.680Z,31.47
2022-09-06T16:15:10.670Z,31.39
2022-09-06T16:16:10.662Z,31.35
2022-09-06T16:17:10.687Z,31.34
2022-09-06T16:18:10.643Z,31.16
2022-09-06T16:19:10.654Z,31.19
2022-09-06T16:20:10.616Z,31.17
2022-09-06T16:21:10.608Z,31.41
2022-09-06T16:22:10.600Z,31.43
2022-09-06T16:23:10.589Z,31.57
2022-09-06T16:24:10.602Z,31.63
2022-09-06T16:25:10.590Z,31.68
2022-09-06T16:26:10.573Z,31.54
2022-09-06T16:27:10.568Z,31.46
2022-09-06T16:28:10.561Z,31.25
2022-09-06T16:29:58.923Z,30.98
2022-09-06T16:30:58.995Z,31.04
2022-09-06T16:32:51.825Z,30.98
2022-09-06T16:33:51.814Z,30.91
